Time;durP1;ratioP1;P1;durP2;ratioP2;P2;SDS_P1;SDS_P2;PMS_P1;PMS_P2;Temp;Humidity;BMP_temperature;BMP_pressure;BME280_temperature;BME280_humidity;BME280_pressure;Samples;Min_cycle;Max_cycle;Signal;HPM_P1;HPM_P2
2022/06/03 00:00:16;;;;;;;3.60;2.00;;;15.70;91.10;;;;;;5034409;28;20481;-80
2022/06/03 00:02:54;;;;;;;3.53;2.22;;;15.60;91.20;;;;;;5034475;28;20037;-80
2022/06/03 00:05:23;;;;;;;4.63;2.45;;;15.60;91.30;;;;;;5034451;28;20083;-80
2022/06/03 00:08:13;;;;;;;3.40;2.10;;;15.60;91.40;;;;;;5034264;28;20087;-80
2022/06/03 00:10:38;;;;;;;4.28;2.45;;;15.60;91.40;;;;;;5034243;28;20025;-80
2022/06/03 00:13:37;;;;;;;3.30;1.80;;;15.60;91.50;;;;;;5034291;28;20500;-80
2022/06/03 00:16:29;;;;;;;3.85;2.10;;;15.60;91.50;;;;;;5029923;28;20144;-80
2022/06/03 00:19:23;;;;;;;3.97;1.75;;;15.60;91.60;;;;;;5034080;28;20033;-80
2022/06/03 00:22:09;;;;;;;3.72;2.13;;;15.50;91.60;;;;;;5034184;28;20048;-80
2022/06/03 00:24:45;;;;;;;3.50;2.22;;;15.50;91.60;;;;;;5034226;28;20037;-80
2022/06/03 00:27:23;;;;;;;3.45;1.90;;;15.50;91.70;;;;;;5033920;28;20044;-80
2022/06/03 00:30:29;;;;;;;3.33;1.80;;;15.50;91.70;;;;;;5032589;28;20108;-80
2022/06/03 00:33:07;;;;;;;4.15;1.88;;;15.50;91.80;;;;;;5034032;28;20030;-80
2022/06/03 00:36:02;;;;;;;3.05;2.15;;;15.40;91.90;;;;;;5033990;28;20052;-80
2022/06/03 00:38:55;;;;;;;4.28;2.15;;;15.40;91.90;;;;;;5033636;28;20128;-79
2022/06/03 00:41:43;;;;;;;4.18;2.00;;;15.40;92.00;;;;;;5033772;28;20029;-80
2022/06/03 00:44:42;;;;;;;3.15;1.67;;;15.40;92.10;;;;;;5033697;28;20466;-80
2022/06/03 00:47:45;;;;;;;3.28;2.00;;;15.40;92.10;;;;;;5033517;28;20378;-80
2022/06/03 00:50:35;;;;;;;3.13;2.05;;;15.30;92.10;;;;;;5033771;28;20030;-80
2022/06/03 00:53:27;;;;;;;3.60;1.98;;;15.30;92.20;;;;;;5033749;28;20033;-80
2022/06/03 00:56:12;;;;;;;4.50;2.00;;;15.30;92.20;;;;;;5033473;28;20052;-80
2022/06/03 00:58:40;;;;;;;3.58;2.00;;;15.30;92.30;;;;;;5033435;28;20108;-80
2022/06/03 01:01:32;;;;;;;2.28;1.67;;;15.30;92.40;;;;;;5032628;28;20028;-80
2022/06/03 01:04:13;;;;;;;3.15;1.77;;;15.20;92.40;;;;;;5024904;28;20045;-80
2022/06/03 01:06:46;;;;;;;3.42;1.92;;;15.20;92.60;;;;;;5033487;28;20425;-80
2022/06/03 01:09:27;;;;;;;4.95;2.03;;;15.20;92.70;;;;;;5033246;28;20108;-80
2022/06/03 01:12:22;;;;;;;3.85;2.10;;;15.20;92.70;;;;;;5033300;28;20045;-80
2022/06/03 01:14:53;;;;;;;3.67;2.17;;;15.20;92.70;;;;;;5033297;28;20091;-80
2022/06/03 01:17:35;;;;;;;4.90;2.00;;;15.10;92.70;;;;;;5033012;28;20072;-80
2022/06/03 01:20:15;;;;;;;3.55;2.00;;;15.20;92.70;;;;;;5032971;28;20037;-79
2022/06/03 01:23:11;;;;;;;4.93;2.55;;;15.10;92.80;;;;;;5033019;28;20034;-80
2022/06/03 01:25:47;;;;;;;3.45;2.00;;;15.10;92.80;;;;;;5032850;28;20037;-80
2022/06/03 01:28:30;;;;;;;4.22;1.80;;;15.10;92.90;;;;;;5033159;28;20025;-80
2022/06/03 01:31:13;;;;;;;5.82;2.17;;;15.10;93.00;;;;;;5032846;28;20033;-80
2022/06/03 01:33:50;;;;;;;3.40;2.10;;;15.10;93.00;;;;;;5032906;28;20481;-80
2022/06/03 01:36:36;;;;;;;4.50;2.42;;;15.10;93.00;;;;;;5033115;28;20032;-80
2022/06/03 01:39:25;;;;;;;3.38;2.30;;;15.00;93.10;;;;;;5032614;28;20048;-80
2022/06/03 01:41:57;;;;;;;;;;;15.00;93.30;;;;;;5032773;28;20037;-80
2022/06/03 01:44:45;;;;;;;5.72;2.40;;;15.00;93.30;;;;;;5032954;28;19913;-80
2022/06/03 01:47:57;;;;;;;3.47;2.13;;;15.00;93.40;;;;;;5001487;28;20045;-80
2022/06/03 01:50:41;;;;;;;4.72;2.35;;;15.00;93.50;;;;;;5017906;28;20039;-80
2022/06/03 01:53:37;;;;;;;5.18;1.98;;;14.90;93.60;;;;;;5032493;28;20050;-80
2022/06/03 01:56:18;;;;;;;4.35;2.50;;;14.90;93.70;;;;;;5032173;28;20171;-80
2022/06/03 01:59:03;;;;;;;4.15;2.35;;;14.90;93.70;;;;;;5032411;28;20025;-80
2022/06/03 02:01:48;;;;;;;3.10;1.90;;;14.90;93.70;;;;;;5032413;28;20088;-80
2022/06/03 02:04:41;;;;;;;5.70;2.30;;;14.80;93.80;;;;;;5032005;28;20025;-80
2022/06/03 02:07:32;;;;;;;3.05;2.20;;;14.80;93.80;;;;;;5032387;28;20055;-80
2022/06/03 02:10:20;;;;;;;4.97;2.33;;;14.80;93.90;;;;;;5032038;28;20421;-80
2022/06/03 02:13:04;;;;;;;3.67;2.30;;;14.80;94.10;;;;;;5032125;28;20125;-80
2022/06/03 02:16:03;;;;;;;4.05;2.10;;;14.80;94.20;;;;;;5032152;28;20554;-80
2022/06/03 02:19:01;;;;;;;3.60;2.10;;;14.70;94.10;;;;;;5031922;28;20509;-80
2022/06/03 02:21:46;;;;;;;6.18;2.35;;;14.70;94.30;;;;;;4977651;28;20643;-80
2022/06/03 02:24:47;;;;;;;4.07;2.08;;;14.70;94.40;;;;;;5031819;28;20033;-80
2022/06/03 02:27:43;;;;;;;4.43;2.20;;;14.70;94.50;;;;;;5031616;28;20036;-80
2022/06/03 02:30:26;;;;;;;2.97;1.98;;;14.60;94.50;;;;;;5031597;28;20496;-80
2022/06/03 02:33:10;;;;;;;3.35;2.22;;;14.50;94.60;;;;;;5031686;28;20029;-80
2022/06/03 02:35:58;;;;;;;4.05;1.92;;;14.50;94.90;;;;;;5031521;28;20039;-80
2022/06/03 02:38:55;;;;;;;3.65;2.15;;;14.50;95.00;;;;;;5031732;28;20086;-80
2022/06/03 02:41:39;;;;;;;4.25;2.50;;;14.50;95.10;;;;;;5031648;28;20099;-80
2022/06/03 02:44:39;;;;;;;6.35;2.55;;;14.40;95.30;;;;;;5031524;28;20045;-80
2022/06/03 02:47:23;;;;;;;5.53;3.67;;;14.40;95.40;;;;;;5031353;28;20108;-80
2022/06/03 02:50:09;;;;;;;4.72;2.80;;;14.30;95.60;;;;;;5031327;28;20025;-80
2022/06/03 02:53:17;;;;;;;4.72;2.45;;;14.30;95.70;;;;;;5031429;28;20316;-80
2022/06/03 02:55:58;;;;;;;3.90;2.70;;;14.30;95.80;;;;;;5031475;28;20038;-80
2022/06/03 02:58:42;;;;;;;5.97;2.80;;;14.30;95.80;;;;;;5031299;28;20040;-80
2022/06/03 03:01:26;;;;;;;4.00;2.30;;;14.20;95.90;;;;;;5031270;28;20030;-80
2022/06/03 03:04:19;;;;;;;4.22;2.67;;;14.20;96.10;;;;;;5031267;28;20389;-80
2022/06/03 03:07:15;;;;;;;7.30;2.60;;;14.20;96.20;;;;;;5031036;28;20030;-80
2022/06/03 03:09:59;;;;;;;3.78;2.72;;;14.10;96.40;;;;;;5030934;28;20037;-80
2022/06/03 03:12:44;;;;;;;4.75;3.00;;;14.10;96.50;;;;;;5031518;28;20079;-80
2022/06/03 03:15:26;;;;;;;7.13;2.80;;;14.10;96.60;;;;;;5030931;28;20473;-80
2022/06/03 03:18:07;;;;;;;5.93;3.00;;;14.10;96.80;;;;;;5030912;28;20469;-80
2022/06/03 03:20:51;;;;;;;6.45;2.90;;;14.10;96.90;;;;;;5030928;28;20083;-80
2022/06/03 03:23:39;;;;;;;5.38;2.80;;;14.00;97.20;;;;;;5030336;28;20029;-80
2022/06/03 03:26:42;;;;;;;5.15;2.80;;;13.90;97.30;;;;;;5030810;28;20045;-80
2022/06/03 03:29:44;;;;;;;5.72;2.80;;;13.90;97.50;;;;;;5030723;28;20029;-80
2022/06/03 03:32:41;;;;;;;6.00;3.30;;;13.90;97.70;;;;;;5030908;28;20041;-81
2022/06/03 03:35:25;;;;;;;4.40;2.90;;;13.80;97.80;;;;;;5030812;28;20026;-81
2022/06/03 03:38:13;;;;;;;7.28;3.35;;;13.80;98.00;;;;;;5030519;28;20037;-80
2022/06/03 03:41:07;;;;;;;6.78;3.03;;;13.80;98.10;;;;;;5030577;28;20025;-80
2022/06/03 03:43:46;;;;;;;3.83;2.80;;;13.70;98.30;;;;;;5030527;28;20505;-80
2022/06/03 03:46:31;;;;;;;4.65;2.88;;;13.70;98.40;;;;;;5030540;28;20030;-80
2022/06/03 03:49:47;;;;;;;4.85;3.10;;;13.70;98.40;;;;;;5030498;28;20022;-80
2022/06/03 03:52:51;;;;;;;5.85;3.03;;;13.70;98.60;;;;;;5030617;28;20030;-80
2022/06/03 03:55:26;;;;;;;5.00;3.40;;;13.70;98.80;;;;;;5030643;28;20033;-80
2022/06/03 03:58:22;;;;;;;5.20;3.35;;;13.70;98.90;;;;;;5030493;28;20025;-80
2022/06/03 04:00:59;;;;;;;5.63;3.47;;;13.70;98.90;;;;;;5030829;28;20037;-80
2022/06/03 04:03:56;;;;;;;5.80;3.72;;;13.60;99.00;;;;;;5030315;28;20033;-79
2022/06/03 04:06:52;;;;;;;6.85;3.45;;;13.70;99.20;;;;;;5030403;28;20075;-79
2022/06/03 04:09:45;;;;;;;5.45;3.70;;;13.70;99.20;;;;;;5030237;28;20466;-79
2022/06/03 04:12:28;;;;;;;5.55;3.33;;;13.70;99.30;;;;;;5030552;28;20029;-80
2022/06/03 04:15:04;;;;;;;5.70;3.25;;;13.70;99.40;;;;;;5030375;28;20033;-79
2022/06/03 04:17:51;;;;;;;5.88;3.33;;;13.80;99.40;;;;;;5028970;28;20517;-79
2022/06/03 04:20:46;;;;;;;5.05;3.38;;;13.80;99.30;;;;;;5030234;28;20076;-80
2022/06/03 04:23:50;;;;;;;6.15;3.20;;;13.80;99.40;;;;;;5030399;28;20029;-80
2022/06/03 04:26:22;;;;;;;6.28;3.22;;;13.80;99.60;;;;;;5030205;28;20041;-80
2022/06/03 04:29:34;;;;;;;4.97;2.97;;;13.80;99.60;;;;;;5030143;28;20112;-80
2022/06/03 04:32:18;;;;;;;5.95;3.70;;;13.80;99.60;;;;;;5030390;28;20032;-80
2022/06/03 04:35:25;;;;;;;4.93;3.22;;;13.80;99.70;;;;;;5030133;28;20030;-80
2022/06/03 04:38:06;;;;;;;5.22;3.42;;;13.80;99.70;;;;;;5033730;28;20545;-80
2022/06/03 04:40:59;;;;;;;5.70;3.58;;;13.80;99.80;;;;;;5033606;28;20033;-80
2022/06/03 04:43:39;;;;;;;6.20;3.58;;;13.90;99.90;;;;;;5033810;28;20485;-80
2022/06/03 04:46:42;;;;;;;5.80;3.40;;;13.90;99.90;;;;;;5033548;28;20437;-80
2022/06/03 04:49:23;;;;;;;5.55;3.22;;;14.00;99.90;;;;;;5033606;28;20057;-80
2022/06/03 04:52:23;;;;;;;5.53;3.40;;;14.00;99.90;;;;;;5033936;28;20485;-80
2022/06/03 04:54:57;;;;;;;6.93;3.63;;;14.00;99.70;;;;;;5033586;28;20064;-80
2022/06/03 04:57:29;;;;;;;6.72;3.90;;;14.00;99.70;;;;;;5033702;28;20041;-80
2022/06/03 05:00:22;;;;;;;5.15;3.80;;;14.10;99.80;;;;;;5032097;28;20037;-80
2022/06/03 05:05:58;;;;;;;5.40;3.55;;;14.10;99.90;;;;;;5031558;28;20092;-65
2022/06/03 05:08:58;;;;;;;6.32;2.85;;;14.20;99.90;;;;;;5033834;28;20030;-66
2022/06/03 05:11:52;;;;;;;6.75;3.38;;;14.20;99.70;;;;;;5033622;28;20195;-66
2022/06/03 05:14:18;;;;;;;6.00;3.10;;;14.20;99.50;;;;;;5033647;28;20128;-66
2022/06/03 05:17:02;;;;;;;5.93;3.47;;;14.30;99.30;;;;;;5033784;28;20117;-66
2022/06/03 05:19:30;;;;;;;4.40;2.95;;;14.30;99.20;;;;;;5033486;28;20108;-66
2022/06/03 05:22:09;;;;;;;8.32;3.92;;;14.40;99.30;;;;;;5033704;28;20029;-66
2022/06/03 05:24:54;;;;;;;4.88;3.20;;;14.40;99.30;;;;;;5033456;28;20040;-67
2022/06/03 05:27:20;;;;;;;4.78;3.00;;;14.50;99.00;;;;;;5033283;28;20025;-66
2022/06/03 05:30:25;;;;;;;5.68;3.30;;;14.50;98.80;;;;;;5033604;28;20112;-66
2022/06/03 05:33:36;;;;;;;5.32;2.88;;;14.50;98.70;;;;;;5033452;28;20105;-67
2022/06/03 05:36:29;;;;;;;5.28;3.47;;;14.60;98.60;;;;;;5030511;28;20175;-66
2022/06/03 05:38:55;;;;;;;6.32;3.08;;;14.60;98.70;;;;;;5030483;28;20029;-66
2022/06/03 05:45:20;;;;;;;6.15;3.50;;;14.70;98.70;;;;;;5032934;28;20059;-67
2022/06/03 05:47:56;;;;;;;7.13;3.72;;;14.80;98.60;;;;;;5031043;28;20041;-66
2022/06/03 05:50:34;;;;;;;5.47;3.08;;;14.80;98.60;;;;;;5032935;28;20073;-65
2022/06/03 05:53:07;;;;;;;11.13;4.15;;;14.80;98.60;;;;;;5033431;28;20545;-66
2022/06/03 05:55:52;;;;;;;8.15;3.38;;;14.90;98.50;;;;;;5032978;28;20032;-66
2022/06/03 05:58:40;;;;;;;8.30;4.00;;;14.90;98.40;;;;;;5031671;28;20091;-66
2022/06/03 06:01:35;;;;;;;6.65;3.70;;;15.00;98.30;;;;;;5031170;28;20045;-66
2022/06/03 06:04:39;;;;;;;6.82;4.43;;;15.10;98.20;;;;;;5031221;28;20486;-66
2022/06/03 06:07:38;;;;;;;9.10;4.10;;;15.10;98.20;;;;;;5032634;28;20065;-66
2022/06/03 06:10:30;;;;;;;7.53;3.33;;;15.10;98.10;;;;;;5030969;28;20044;-66
2022/06/03 06:13:14;;;;;;;5.88;3.50;;;15.20;98.00;;;;;;5032998;28;20080;-66
2022/06/03 06:16:06;;;;;;;6.93;3.30;;;15.20;97.90;;;;;;5032493;28;20482;-66
2022/06/03 06:18:55;;;;;;;5.63;3.47;;;15.20;97.90;;;;;;5030809;28;20696;-66
2022/06/03 06:21:29;;;;;;;5.65;2.90;;;15.30;98.00;;;;;;5032345;28;20487;-66
2022/06/03 06:24:23;;;;;;;5.47;2.90;;;15.30;97.90;;;;;;5032351;28;20052;-66
2022/06/03 06:27:17;;;;;;;5.97;3.05;;;15.40;97.90;;;;;;5032150;28;20363;-66
2022/06/03 06:30:05;;;;;;;5.22;2.88;;;15.40;97.70;;;;;;5032093;28;20068;-66
2022/06/03 06:32:38;;;;;;;7.38;3.67;;;15.40;97.60;;;;;;5032282;28;20032;-66
2022/06/03 06:35:25;;;;;;;6.57;3.25;;;15.50;97.60;;;;;;5032666;28;20025;-67
2022/06/03 06:38:17;;;;;;;5.88;3.00;;;15.50;97.50;;;;;;5032065;28;20029;-66
2022/06/03 06:41:01;;;;;;;6.63;3.85;;;15.60;97.30;;;;;;5031845;28;20486;-66
2022/06/03 06:43:39;;;;;;;7.10;4.07;;;15.60;97.20;;;;;;5031941;28;20117;-66
2022/06/03 06:46:26;;;;;;;9.07;4.18;;;15.70;97.20;;;;;;5032060;28;20387;-66
2022/06/03 06:49:14;;;;;;;9.55;3.67;;;15.80;97.30;;;;;;5031730;28;20501;-66
2022/06/03 06:52:03;;;;;;;7.60;3.15;;;15.80;97.20;;;;;;5031724;28;20041;-66
2022/06/03 06:54:51;;;;;;;6.18;3.70;;;15.80;97.00;;;;;;5030710;28;20033;-66
2022/06/03 06:57:34;;;;;;;5.75;3.45;;;15.80;96.90;;;;;;5031608;28;20033;-66
2022/06/03 07:00:14;;;;;;;7.85;4.75;;;15.90;97.10;;;;;;5013839;28;20044;-66
2022/06/03 07:02:43;;;;;;;7.57;4.72;;;15.90;97.10;;;;;;5031748;28;20082;-66
2022/06/03 07:05:20;;;;;;;9.73;4.35;;;15.90;97.10;;;;;;5031669;28;20041;-66
2022/06/03 07:08:07;;;;;;;7.93;4.20;;;16.00;97.10;;;;;;5031394;28;20120;-66
2022/06/03 07:10:50;;;;;;;5.53;3.35;;;16.00;97.00;;;;;;5031249;28;20022;-66
2022/06/03 07:13:42;;;;;;;7.13;3.47;;;16.00;97.00;;;;;;5031749;28;20025;-66
2022/06/03 07:19:47;;;;;;;4.60;3.20;;;16.10;97.00;;;;;;5031456;28;20029;-67
2022/06/03 07:22:17;;;;;;;8.35;3.20;;;16.20;97.00;;;;;;5031374;28;20036;-66
2022/06/03 07:25:09;;;;;;;7.13;3.35;;;16.20;96.90;;;;;;5031227;28;20430;-66
2022/06/03 07:28:03;;;;;;;3.90;2.88;;;16.30;96.80;;;;;;5030714;28;20042;-66
2022/06/03 07:30:59;;;;;;;6.03;3.17;;;16.30;96.50;;;;;;5031728;28;20066;-67
2022/06/03 07:33:31;;;;;;;8.63;3.75;;;16.40;96.60;;;;;;5031111;28;20478;-66
2022/06/03 07:36:22;;;;;;;5.90;3.33;;;16.40;96.60;;;;;;5031114;28;20025;-66
2022/06/03 07:38:56;;;;;;;5.43;3.03;;;16.40;96.40;;;;;;5031141;28;20025;-67
2022/06/03 07:41:28;;;;;;;7.65;4.10;;;16.50;96.20;;;;;;5031190;28;20108;-66
2022/06/03 07:44:14;;;;;;;6.03;3.28;;;16.50;96.30;;;;;;5031035;28;20493;-66
2022/06/03 07:46:54;;;;;;;5.93;3.50;;;16.60;96.10;;;;;;5030952;28;20029;-66
2022/06/03 07:49:25;;;;;;;5.75;3.10;;;16.60;95.80;;;;;;5031085;28;20029;-66
2022/06/03 07:52:09;;;;;;;5.00;3.33;;;16.60;95.90;;;;;;5029910;28;20417;-66
2022/06/03 07:54:36;;;;;;;9.25;3.60;;;16.70;96.00;;;;;;5031096;28;20036;-67
2022/06/03 07:57:17;;;;;;;6.13;3.10;;;16.70;96.30;;;;;;5031277;28;20029;-66
2022/06/03 07:59:43;;;;;;;4.80;3.05;;;16.70;96.10;;;;;;5030793;28;20075;-66
2022/06/03 08:02:17;;;;;;;7.43;3.20;;;16.70;96.20;;;;;;5031187;28;20124;-66
2022/06/03 08:04:45;;;;;;;4.53;2.58;;;16.70;96.50;;;;;;5030579;28;20034;-66
2022/06/03 08:13:15;;;;;;;6.45;2.97;;;16.90;96.20;;;;;;5034950;28;20021;-66
2022/06/03 08:15:53;;;;;;;9.85;3.25;;;17.00;96.10;;;;;;5034857;28;20036;-67
2022/06/03 08:18:19;;;;;;;6.82;3.35;;;17.10;96.30;;;;;;5034766;28;20033;-65
2022/06/03 08:20:47;;;;;;;7.05;3.00;;;17.10;95.60;;;;;;5034764;28;20033;-66
2022/06/03 08:23:17;;;;;;;3.65;2.50;;;17.20;95.30;;;;;;5034770;28;20040;-66
2022/06/03 08:25:45;;;;;;;4.32;2.25;;;17.30;94.80;;;;;;5034378;28;20034;-66
2022/06/03 08:28:16;;;;;;;5.57;2.30;;;17.30;94.90;;;;;;5034587;28;20108;-66
2022/06/03 08:30:46;;;;;;;4.72;2.30;;;17.30;94.20;;;;;;5034436;28;20040;-66
2022/06/03 08:33:15;;;;;;;5.13;2.45;;;17.40;94.20;;;;;;5034610;28;20030;-66
2022/06/03 08:35:44;;;;;;;5.15;2.80;;;17.40;94.50;;;;;;5034399;28;20143;-66
2022/06/03 08:38:19;;;;;;;8.40;3.20;;;17.40;94.60;;;;;;5034249;28;20037;-66
2022/06/03 08:41:21;;;;;;;7.20;2.60;;;17.40;94.40;;;;;;5034456;28;20052;-66
2022/06/03 08:44:15;;;;;;;5.38;2.38;;;17.50;94.20;;;;;;5034195;28;20037;-66
2022/06/03 08:46:56;;;;;;;6.78;2.17;;;17.60;93.50;;;;;;5033934;28;20029;-66
2022/06/03 08:49:27;;;;;;;5.03;1.88;;;17.60;93.20;;;;;;5033964;28;20029;-66
2022/06/03 08:52:01;;;;;;;3.58;2.00;;;17.70;93.10;;;;;;5034188;28;20033;-66
2022/06/03 08:54:44;;;;;;;5.30;2.08;;;17.80;92.40;;;;;;5033952;28;20053;-66
2022/06/03 08:57:16;;;;;;;4.72;2.15;;;17.80;92.70;;;;;;5034104;28;20032;-66
2022/06/03 08:59:49;;;;;;;4.28;1.92;;;17.90;92.90;;;;;;5034144;28;20036;-66
2022/06/03 09:02:29;;;;;;;6.15;1.80;;;17.90;92.60;;;;;;5033997;28;20037;-66
2022/06/03 09:05:09;;;;;;;3.92;2.00;;;18.00;92.20;;;;;;5033917;28;20026;-66
2022/06/03 09:07:50;;;;;;;3.30;1.90;;;17.90;92.40;;;;;;5033708;28;20108;-67
2022/06/03 09:10:25;;;;;;;4.55;1.70;;;17.90;92.40;;;;;;5032424;28;20030;-66
2022/06/03 09:13:25;;;;;;;4.45;1.85;;;18.00;92.60;;;;;;5032424;28;20029;-66
2022/06/03 09:15:53;;;;;;;3.30;1.80;;;18.10;92.30;;;;;;5033438;28;20030;-67
2022/06/03 09:18:39;;;;;;;5.10;1.60;;;18.10;92.20;;;;;;5033864;28;20112;-66
2022/06/03 09:21:19;;;;;;;4.07;2.15;;;18.10;92.40;;;;;;5032736;28;20078;-66
2022/06/03 09:23:49;;;;;;;3.10;1.77;;;18.10;92.40;;;;;;5033607;28;20112;-66
2022/06/03 09:26:26;;;;;;;3.72;2.00;;;18.10;92.10;;;;;;5032374;28;20022;-67
2022/06/03 09:28:57;;;;;;;5.05;1.70;;;18.20;91.50;;;;;;5033224;28;20033;-66
2022/06/03 09:31:24;;;;;;;3.13;1.50;;;18.20;91.10;;;;;;5033632;28;20393;-67
2022/06/03 09:33:52;;;;;;;3.03;1.50;;;18.30;90.90;;;;;;5033515;28;20034;-66
2022/06/03 09:36:20;;;;;;;2.95;1.60;;;18.40;90.60;;;;;;5033270;28;20107;-67
2022/06/03 09:38:56;;;;;;;5.05;1.80;;;18.40;90.70;;;;;;5033118;28;20104;-66
2022/06/03 09:41:26;;;;;;;4.30;1.77;;;18.50;90.80;;;;;;5033519;28;20033;-66
2022/06/03 09:43:53;;;;;;;4.07;1.50;;;18.50;90.90;;;;;;5033044;28;20022;-66
2022/06/03 09:46:22;;;;;;;5.18;1.70;;;18.50;91.00;;;;;;5033215;28;20374;-66
2022/06/03 09:48:49;;;;;;;6.20;2.67;;;18.50;91.40;;;;;;5032796;28;20475;-66
2022/06/03 09:51:20;;;;;;;7.07;2.30;;;18.70;91.00;;;;;;5032955;28;20037;-65
2022/06/03 09:53:47;;;;;;;4.93;1.92;;;18.70;91.40;;;;;;5033289;28;20398;-66
2022/06/03 09:56:21;;;;;;;5.03;2.40;;;18.60;91.10;;;;;;5033254;28;20112;-66
2022/06/03 09:58:49;;;;;;;4.88;2.30;;;18.70;91.00;;;;;;5032715;28;20071;-67
2022/06/03 10:01:15;;;;;;;3.72;1.98;;;18.70;90.00;;;;;;5032733;28;20474;-66
2022/06/03 10:03:43;;;;;;;2.78;1.50;;;18.80;90.00;;;;;;5032633;28;20025;-66
2022/06/03 10:06:42;;;;;;;4.05;1.73;;;18.80;90.00;;;;;;5032676;28;20040;-66
2022/06/03 10:14:25;;;;;;;3.47;1.52;;;19.00;89.10;;;;;;5032623;28;20457;-66
2022/06/03 10:16:51;;;;;;;3.05;1.45;;;19.10;88.70;;;;;;5032408;28;20112;-66
2022/06/03 10:19:17;;;;;;;3.15;1.58;;;19.10;89.10;;;;;;5032368;28;20021;-66
2022/06/03 10:21:54;;;;;;;3.50;1.80;;;19.20;89.00;;;;;;5032415;28;20043;-66
2022/06/03 10:24:29;;;;;;;4.20;1.60;;;19.20;88.40;;;;;;5032487;28;20030;-66
2022/06/03 10:26:59;;;;;;;1.90;1.20;;;19.20;88.90;;;;;;5032103;28;20053;-66
2022/06/03 10:29:27;;;;;;;2.92;1.27;;;19.20;88.10;;;;;;5032008;28;20120;-67
2022/06/03 10:31:58;;;;;;;3.22;1.60;;;19.20;88.10;;;;;;5032163;28;20087;-66
2022/06/03 10:34:27;;;;;;;4.07;1.63;;;19.10;87.50;;;;;;5030152;28;20029;-66
2022/06/03 10:36:56;;;;;;;2.38;1.45;;;19.20;86.90;;;;;;5031995;28;20485;-65
2022/06/03 10:39:27;;;;;;;2.20;1.35;;;19.20;86.80;;;;;;5032062;28;20049;-66
2022/06/03 10:41:58;;;;;;;2.47;1.58;;;19.20;87.90;;;;;;5030955;28;20026;-67
2022/06/03 10:44:33;;;;;;;2.03;1.40;;;19.20;88.40;;;;;;5032096;28;20108;-66
2022/06/03 10:47:15;;;;;;;2.83;1.52;;;19.20;87.60;;;;;;5031615;28;20026;-66
2022/06/03 10:49:51;;;;;;;2.15;1.27;;;19.30;88.30;;;;;;5031882;28;20022;-66
2022/06/03 11:01:34;;;;;;;2.40;1.33;;;19.50;88.20;;;;;;5031844;28;20033;-66
2022/06/03 11:04:01;;;;;;;2.75;1.50;;;19.50;87.00;;;;;;5044795;22;20209;-65
2022/06/03 11:06:37;;;;;;;3.13;1.60;;;19.50;87.70;;;;;;5031262;28;20035;-65
2022/06/03 11:09:07;;;;;;;3.97;1.70;;;19.50;87.90;;;;;;5031314;28;20029;-65
2022/06/03 11:11:44;;;;;;;2.30;1.40;;;19.50;87.50;;;;;;5031337;28;20033;-65
2022/06/03 11:14:25;;;;;;;3.60;1.52;;;19.60;86.50;;;;;;5031522;28;20034;-65
2022/06/03 11:16:58;;;;;;;3.20;1.70;;;19.60;85.80;;;;;;5031186;28;20074;-65
2022/06/03 11:19:24;;;;;;;2.95;1.70;;;19.70;86.60;;;;;;5031205;28;20026;-65
2022/06/03 11:22:14;;;;;;;3.53;1.40;;;19.70;87.10;;;;;;5031252;28;20030;-65
2022/06/03 11:24:40;;;;;;;1.98;1.50;;;19.80;84.50;;;;;;5031017;28;20474;-65
2022/06/03 11:27:10;;;;;;;2.47;1.33;;;19.90;83.80;;;;;;5030599;28;20474;-65
2022/06/03 11:29:39;;;;;;;4.18;1.55;;;19.90;85.10;;;;;;5030841;28;20053;-65
2022/06/03 11:32:08;;;;;;;2.28;1.33;;;19.90;85.40;;;;;;5030988;28;20030;-65
2022/06/03 11:34:44;;;;;;;1.55;1.10;;;19.90;84.90;;;;;;5031219;28;20095;-65
2022/06/03 11:37:19;;;;;;;2.25;1.30;;;19.90;85.00;;;;;;5030676;28;20553;-65
2022/06/03 11:39:56;;;;;;;2.58;1.33;;;20.00;84.30;;;;;;5029464;28;20041;-65
2022/06/03 11:42:50;;;;;;;2.35;1.33;;;20.10;84.50;;;;;;5030864;28;20041;-65
2022/06/03 11:45:21;;;;;;;2.05;1.40;;;20.20;83.40;;;;;;5030534;28;20025;-65
2022/06/03 11:48:08;;;;;;;2.45;1.20;;;20.30;84.10;;;;;;5029396;28;20057;-65
2022/06/03 11:50:35;;;;;;;5.78;1.35;;;20.30;84.40;;;;;;5030655;28;20475;-65
2022/06/03 11:53:02;;;;;;;2.70;1.30;;;20.40;83.00;;;;;;5030810;28;20091;-65
2022/06/03 11:55:32;;;;;;;2.25;1.40;;;20.40;84.10;;;;;;5030646;28;20478;-65
2022/06/03 11:58:18;;;;;;;2.35;1.27;;;20.40;83.40;;;;;;5030519;28;20040;-65
2022/06/03 12:00:51;;;;;;;3.25;1.30;;;20.50;82.40;;;;;;5030923;28;20025;-65
2022/06/03 12:03:31;;;;;;;2.92;1.50;;;20.60;82.50;;;;;;5031048;28;20026;-65
2022/06/03 12:06:36;;;;;;;1.83;1.23;;;20.80;82.20;;;;;;5029510;28;20427;-65
2022/06/03 12:09:09;;;;;;;3.15;1.20;;;20.90;81.10;;;;;;4999820;28;20431;-67
2022/06/03 12:15:31;;;;;;;2.20;1.50;;;20.90;81.50;;;;;;5030627;28;20026;-67
2022/06/03 12:18:14;;;;;;;1.92;1.10;;;20.90;81.70;;;;;;5030819;28;20100;-66
2022/06/03 12:20:49;;;;;;;3.10;1.45;;;21.00;80.50;;;;;;5030434;28;20037;-66
2022/06/03 12:23:15;;;;;;;2.38;1.33;;;21.10;80.20;;;;;;5030561;28;20389;-66
2022/06/03 12:25:41;;;;;;;3.67;1.38;;;21.20;80.50;;;;;;5029162;28;20049;-66
2022/06/03 12:28:24;;;;;;;2.78;1.35;;;21.30;80.70;;;;;;5029273;28;20033;-66
2022/06/03 12:30:52;;;;;;;2.60;1.40;;;21.30;80.90;;;;;;5030342;28;20029;-66
2022/06/03 12:33:27;;;;;;;;;;;21.50;81.30;;;;;;5030906;28;20470;-66
2022/06/03 12:35:59;;;;;;;4.32;1.50;;;21.70;78.80;;;;;;5030334;28;20316;-66
2022/06/03 12:38:40;;;;;;;2.00;1.25;;;21.90;78.60;;;;;;5030442;28;20049;-67
2022/06/03 12:41:06;;;;;;;2.80;1.50;;;22.20;78.50;;;;;;5030400;28;20039;-66
2022/06/03 12:43:55;;;;;;;2.63;1.50;;;22.30;78.20;;;;;;5030596;28;20067;-66
2022/06/03 12:46:43;;;;;;;2.20;1.20;;;22.50;77.00;;;;;;5030203;28;20029;-66
2022/06/03 12:49:44;;;;;;;3.50;1.40;;;22.70;77.90;;;;;;5030463;28;20064;-66
2022/06/03 12:52:35;;;;;;;3.42;1.30;;;22.80;78.90;;;;;;5030301;28;20101;-67
2022/06/03 12:55:23;;;;;;;2.63;1.48;;;22.80;78.10;;;;;;5030510;28;20041;-66
2022/06/03 12:57:55;;;;;;;1.88;1.33;;;22.80;77.20;;;;;;5033352;28;20393;-66
2022/06/03 13:00:25;;;;;;;3.22;1.70;;;22.90;76.80;;;;;;5034187;28;20043;-66
2022/06/03 13:02:56;;;;;;;3.35;1.90;;;22.90;76.80;;;;;;5034304;28;20107;-66
2022/06/03 13:05:37;;;;;;;3.20;1.30;;;22.80;77.30;;;;;;5033875;28;20404;-66
2022/06/03 13:08:11;;;;;;;5.53;1.67;;;22.80;74.80;;;;;;5033557;28;20029;-66
2022/06/03 13:10:56;;;;;;;2.80;1.80;;;22.70;74.30;;;;;;5033689;28;20057;-66
2022/06/03 13:13:37;;;;;;;2.83;1.50;;;22.70;75.20;;;;;;5033702;28;20027;-65
2022/06/03 13:16:31;;;;;;;3.20;1.85;;;22.70;74.80;;;;;;5033530;28;20064;-65
2022/06/03 13:19:19;;;;;;;3.75;1.88;;;22.60;75.60;;;;;;5033462;28;20112;-66
2022/06/03 13:21:57;;;;;;;5.18;2.67;;;22.50;76.30;;;;;;5033243;28;20039;-66
2022/06/03 13:24:26;;;;;;;6.88;2.25;;;22.30;77.80;;;;;;5033257;28;20524;-66
2022/06/03 13:27:20;;;;;;;4.65;2.60;;;22.00;79.10;;;;;;5033092;28;20061;-66
2022/06/03 13:29:49;;;;;;;4.43;2.15;;;21.90;78.00;;;;;;5033229;28;20453;-66
2022/06/03 13:32:37;;;;;;;3.10;1.85;;;21.80;78.80;;;;;;5033206;28;20049;-65
2022/06/03 13:35:27;;;;;;;2.42;1.80;;;21.60;78.70;;;;;;5033291;28;20095;-67
2022/06/03 13:37:56;;;;;;;3.45;1.50;;;21.60;78.40;;;;;;5033115;28;20044;-67
2022/06/03 13:40:25;;;;;;;3.80;1.92;;;21.50;79.90;;;;;;5031662;28;20030;-66
2022/06/03 13:43:18;;;;;;;3.25;2.00;;;21.40;80.50;;;;;;5033483;28;20033;-66
2022/06/03 13:45:52;;;;;;;4.20;2.42;;;21.40;80.80;;;;;;5025353;28;20414;-66
2022/06/03 13:48:34;;;;;;;5.88;2.60;;;21.40;80.20;;;;;;5032875;28;20091;-67
2022/06/03 13:51:37;;;;;;;3.50;2.10;;;21.50;79.00;;;;;;5032812;28;20029;-66
2022/06/03 13:54:44;;;;;;;2.05;1.42;;;21.60;79.20;;;;;;5032906;28;20497;-66
2022/06/03 13:57:26;;;;;;;3.65;1.63;;;21.70;78.60;;;;;;5015158;28;20034;-67
2022/06/03 14:00:23;;;;;;;3.63;1.70;;;21.90;78.60;;;;;;5031461;28;20083;-66
2022/06/03 14:02:53;;;;;;;6.60;2.53;;;22.00;78.30;;;;;;5032707;28;20033;-66
2022/06/03 14:05:40;;;;;;;3.40;1.80;;;22.10;78.50;;;;;;5032450;28;20056;-66
2022/06/03 14:08:42;;;;;;;2.88;1.45;;;22.00;79.10;;;;;;5032386;28;20057;-66
2022/06/03 14:11:33;;;;;;;2.55;1.27;;;22.10;77.60;;;;;;4978485;28;20043;-66
2022/06/03 14:14:24;;;;;;;4.78;2.55;;;22.30;77.30;;;;;;5004973;28;20436;-66
2022/06/03 14:17:01;;;;;;;4.00;2.60;;;22.20;78.00;;;;;;5032043;28;20481;-66
2022/06/03 14:19:50;;;;;;;3.35;2.15;;;22.20;78.50;;;;;;5032212;28;20030;-66
2022/06/03 14:22:37;;;;;;;5.70;1.80;;;22.10;78.10;;;;;;5032868;28;20029;-67
2022/06/03 14:25:16;;;;;;;2.33;1.40;;;22.00;78.10;;;;;;5032190;28;20525;-66
2022/06/03 14:27:55;;;;;;;1.92;1.42;;;21.90;78.10;;;;;;5032148;28;20036;-67
2022/06/03 14:30:31;;;;;;;3.65;1.55;;;21.90;78.50;;;;;;5030660;28;20052;-67
2022/06/03 14:32:58;;;;;;;2.03;1.40;;;21.80;78.10;;;;;;5030887;28;20029;-66
2022/06/03 14:35:29;;;;;;;2.58;1.60;;;21.90;77.50;;;;;;5032068;28;20121;-67
2022/06/03 14:38:16;;;;;;;2.47;1.40;;;22.00;77.60;;;;;;5031899;28;20036;-66